sensor_id;sensor_type;location;lat;lon;timestamp;P1;durP1;ratioP1;P2;durP2;ratioP2
50249;SDS011;36133;42.522;27.456;2022-07-23T00:02:02;10.15;;;4.10;;
50249;SDS011;36133;42.522;27.456;2022-07-23T00:04:27;14.63;;;3.70;;
50249;SDS011;36133;42.522;27.456;2022-07-23T00:06:53;12.85;;;3.65;;
50249;SDS011;36133;42.522;27.456;2022-07-23T00:09:18;5.88;;;3.00;;
50249;SDS011;36133;42.522;27.456;2022-07-23T00:11:44;11.05;;;3.47;;
50249;SDS011;36133;42.522;27.456;2022-07-23T00:14:09;5.57;;;3.35;;
50249;SDS011;36133;42.522;27.456;2022-07-23T00:16:35;8.25;;;3.80;;
50249;SDS011;36133;42.522;27.456;2022-07-23T00:19:00;14.07;;;3.92;;
50249;SDS011;36133;42.522;27.456;2022-07-23T00:21:27;8.73;;;3.92;;
50249;SDS011;36133;42.522;27.456;2022-07-23T00:23:53;10.77;;;4.53;;
50249;SDS011;36133;42.522;27.456;2022-07-23T00:26:18;8.68;;;4.50;;
50249;SDS011;36133;42.522;27.456;2022-07-23T00:28:44;6.90;;;4.28;;
50249;SDS011;36133;42.522;27.456;2022-07-23T00:31:09;7.47;;;4.13;;
50249;SDS011;36133;42.522;27.456;2022-07-23T00:33:35;6.90;;;4.30;;
50249;SDS011;36133;42.522;27.456;2022-07-23T00:36:00;9.27;;;3.97;;
50249;SDS011;36133;42.522;27.456;2022-07-23T00:38:26;6.88;;;4.20;;
50249;SDS011;36133;42.522;27.456;2022-07-23T00:40:51;6.93;;;4.05;;
50249;SDS011;36133;42.522;27.456;2022-07-23T00:43:19;9.93;;;3.58;;
50249;SDS011;36133;42.522;27.456;2022-07-23T00:45:45;12.95;;;4.00;;
50249;SDS011;36133;42.522;27.456;2022-07-23T00:48:11;8.43;;;3.45;;
50249;SDS011;36133;42.522;27.456;2022-07-23T00:50:36;10.90;;;3.50;;
50249;SDS011;36133;42.522;27.456;2022-07-23T00:53:02;6.43;;;3.63;;
50249;SDS011;36133;42.522;27.456;2022-07-23T00:55:27;15.15;;;3.83;;
50249;SDS011;36133;42.522;27.456;2022-07-23T00:57:53;6.85;;;3.72;;
50249;SDS011;36133;42.522;27.456;2022-07-23T01:00:21;8.07;;;3.85;;
50249;SDS011;36133;42.522;27.456;2022-07-23T01:02:46;9.73;;;4.18;;
50249;SDS011;36133;42.522;27.456;2022-07-23T01:05:12;8.18;;;4.25;;
50249;SDS011;36133;42.522;27.456;2022-07-23T01:07:38;7.28;;;3.63;;
50249;SDS011;36133;42.522;27.456;2022-07-23T01:10:04;7.28;;;3.75;;
50249;SDS011;36133;42.522;27.456;2022-07-23T01:12:50;11.00;;;3.72;;
50249;SDS011;36133;42.522;27.456;2022-07-23T01:15:15;8.05;;;3.25;;
50249;SDS011;36133;42.522;27.456;2022-07-23T01:17:41;10.95;;;4.30;;
50249;SDS011;36133;42.522;27.456;2022-07-23T01:20:06;11.98;;;3.85;;
50249;SDS011;36133;42.522;27.456;2022-07-23T01:22:32;9.57;;;4.00;;
50249;SDS011;36133;42.522;27.456;2022-07-23T01:24:57;9.77;;;3.75;;
50249;SDS011;36133;42.522;27.456;2022-07-23T01:27:23;8.95;;;3.67;;
50249;SDS011;36133;42.522;27.456;2022-07-23T01:29:48;11.43;;;4.20;;
50249;SDS011;36133;42.522;27.456;2022-07-23T01:32:14;13.63;;;3.90;;
50249;SDS011;36133;42.522;27.456;2022-07-23T01:34:39;12.13;;;3.47;;
50249;SDS011;36133;42.522;27.456;2022-07-23T01:37:05;8.40;;;3.90;;
50249;SDS011;36133;42.522;27.456;2022-07-23T01:39:31;9.20;;;4.03;;
50249;SDS011;36133;42.522;27.456;2022-07-23T01:41:56;12.27;;;4.32;;
50249;SDS011;36133;42.522;27.456;2022-07-23T01:44:22;15.70;;;4.65;;
50249;SDS011;36133;42.522;27.456;2022-07-23T01:46:47;8.75;;;3.97;;
50249;SDS011;36133;42.522;27.456;2022-07-23T01:49:13;10.82;;;3.90;;
50249;SDS011;36133;42.522;27.456;2022-07-23T01:51:38;8.68;;;3.90;;
50249;SDS011;36133;42.522;27.456;2022-07-23T01:54:24;12.00;;;4.10;;
50249;SDS011;36133;42.522;27.456;2022-07-23T01:56:50;7.13;;;4.20;;
50249;SDS011;36133;42.522;27.456;2022-07-23T01:59:15;8.23;;;4.18;;
50249;SDS011;36133;42.522;27.456;2022-07-23T02:01:41;11.15;;;4.40;;
50249;SDS011;36133;42.522;27.456;2022-07-23T02:04:06;9.95;;;4.40;;
50249;SDS011;36133;42.522;27.456;2022-07-23T02:06:31;9.32;;;4.05;;
50249;SDS011;36133;42.522;27.456;2022-07-23T02:08:57;8.07;;;4.63;;
50249;SDS011;36133;42.522;27.456;2022-07-23T02:11:22;8.00;;;4.22;;
50249;SDS011;36133;42.522;27.456;2022-07-23T02:13:48;7.93;;;4.30;;
50249;SDS011;36133;42.522;27.456;2022-07-23T02:16:13;7.35;;;4.10;;
50249;SDS011;36133;42.522;27.456;2022-07-23T02:18:39;8.55;;;3.90;;
50249;SDS011;36133;42.522;27.456;2022-07-23T02:21:04;7.75;;;4.30;;
50249;SDS011;36133;42.522;27.456;2022-07-23T02:23:30;8.63;;;4.40;;
50249;SDS011;36133;42.522;27.456;2022-07-23T02:25:55;10.07;;;4.68;;
50249;SDS011;36133;42.522;27.456;2022-07-23T02:28:21;6.30;;;4.20;;
50249;SDS011;36133;42.522;27.456;2022-07-23T02:30:46;9.27;;;3.75;;
50249;SDS011;36133;42.522;27.456;2022-07-23T02:33:12;7.05;;;3.88;;
50249;SDS011;36133;42.522;27.456;2022-07-23T02:35:37;11.88;;;4.18;;
50249;SDS011;36133;42.522;27.456;2022-07-23T02:38:02;6.65;;;3.83;;
50249;SDS011;36133;42.522;27.456;2022-07-23T02:40:28;9.15;;;4.07;;
50249;SDS011;36133;42.522;27.456;2022-07-23T02:42:53;10.63;;;3.97;;
50249;SDS011;36133;42.522;27.456;2022-07-23T02:45:19;9.43;;;4.35;;
50249;SDS011;36133;42.522;27.456;2022-07-23T02:47:44;9.80;;;4.00;;
50249;SDS011;36133;42.522;27.456;2022-07-23T02:50:10;7.57;;;3.92;;
50249;SDS011;36133;42.522;27.456;2022-07-23T02:52:37;12.88;;;4.13;;
50249;SDS011;36133;42.522;27.456;2022-07-23T02:55:03;8.82;;;3.65;;
50249;SDS011;36133;42.522;27.456;2022-07-23T02:57:28;8.80;;;4.63;;
50249;SDS011;36133;42.522;27.456;2022-07-23T02:59:55;6.28;;;3.40;;
50249;SDS011;36133;42.522;27.456;2022-07-23T03:02:20;4.78;;;3.78;;
50249;SDS011;36133;42.522;27.456;2022-07-23T03:04:46;7.95;;;3.80;;
50249;SDS011;36133;42.522;27.456;2022-07-23T03:07:11;9.10;;;3.50;;
50249;SDS011;36133;42.522;27.456;2022-07-23T03:09:37;14.52;;;4.00;;
50249;SDS011;36133;42.522;27.456;2022-07-23T03:12:02;8.23;;;4.10;;
50249;SDS011;36133;42.522;27.456;2022-07-23T03:14:28;5.00;;;3.67;;
50249;SDS011;36133;42.522;27.456;2022-07-23T03:16:54;7.95;;;3.80;;
50249;SDS011;36133;42.522;27.456;2022-07-23T03:19:19;5.45;;;4.28;;
50249;SDS011;36133;42.522;27.456;2022-07-23T03:21:45;6.63;;;4.05;;
50249;SDS011;36133;42.522;27.456;2022-07-23T03:24:11;5.38;;;4.07;;
50249;SDS011;36133;42.522;27.456;2022-07-23T03:26:36;7.88;;;4.40;;
50249;SDS011;36133;42.522;27.456;2022-07-23T03:29:02;7.80;;;3.83;;
50249;SDS011;36133;42.522;27.456;2022-07-23T03:31:29;7.13;;;4.38;;
50249;SDS011;36133;42.522;27.456;2022-07-23T03:33:56;10.40;;;4.63;;
50249;SDS011;36133;42.522;27.456;2022-07-23T03:36:21;10.55;;;4.05;;
50249;SDS011;36133;42.522;27.456;2022-07-23T03:38:47;8.55;;;4.03;;
50249;SDS011;36133;42.522;27.456;2022-07-23T03:41:12;17.02;;;4.50;;
50249;SDS011;36133;42.522;27.456;2022-07-23T03:43:38;10.48;;;4.13;;
50249;SDS011;36133;42.522;27.456;2022-07-23T03:46:03;9.85;;;4.28;;
50249;SDS011;36133;42.522;27.456;2022-07-23T03:48:29;7.88;;;4.43;;
50249;SDS011;36133;42.522;27.456;2022-07-23T03:50:54;8.23;;;4.18;;
50249;SDS011;36133;42.522;27.456;2022-07-23T03:53:20;7.70;;;4.55;;
50249;SDS011;36133;42.522;27.456;2022-07-23T03:55:45;6.25;;;3.83;;
50249;SDS011;36133;42.522;27.456;2022-07-23T03:58:11;11.63;;;4.47;;
50249;SDS011;36133;42.522;27.456;2022-07-23T04:00:36;9.75;;;4.20;;
50249;SDS011;36133;42.522;27.456;2022-07-23T04:03:02;9.50;;;3.92;;
50249;SDS011;36133;42.522;27.456;2022-07-23T04:05:27;15.07;;;4.40;;
50249;SDS011;36133;42.522;27.456;2022-07-23T04:07:53;5.22;;;4.13;;
50249;SDS011;36133;42.522;27.456;2022-07-23T04:10:18;5.93;;;4.50;;
50249;SDS011;36133;42.522;27.456;2022-07-23T04:12:44;6.47;;;4.22;;
50249;SDS011;36133;42.522;27.456;2022-07-23T04:15:09;9.50;;;4.35;;
50249;SDS011;36133;42.522;27.456;2022-07-23T04:17:35;9.00;;;4.35;;
50249;SDS011;36133;42.522;27.456;2022-07-23T04:20:01;15.95;;;4.43;;
50249;SDS011;36133;42.522;27.456;2022-07-23T04:22:26;8.48;;;4.53;;
50249;SDS011;36133;42.522;27.456;2022-07-23T04:24:52;10.27;;;3.90;;
50249;SDS011;36133;42.522;27.456;2022-07-23T04:27:17;10.57;;;4.70;;
50249;SDS011;36133;42.522;27.456;2022-07-23T04:29:43;8.27;;;4.28;;
50249;SDS011;36133;42.522;27.456;2022-07-23T04:32:09;9.38;;;4.60;;
50249;SDS011;36133;42.522;27.456;2022-07-23T04:34:34;8.90;;;4.50;;
50249;SDS011;36133;42.522;27.456;2022-07-23T04:37:01;12.18;;;4.70;;
50249;SDS011;36133;42.522;27.456;2022-07-23T04:39:26;10.38;;;4.88;;
50249;SDS011;36133;42.522;27.456;2022-07-23T04:41:51;11.57;;;4.68;;
50249;SDS011;36133;42.522;27.456;2022-07-23T04:44:17;9.90;;;4.55;;
50249;SDS011;36133;42.522;27.456;2022-07-23T04:46:42;10.95;;;4.28;;
50249;SDS011;36133;42.522;27.456;2022-07-23T04:49:08;8.23;;;4.43;;
50249;SDS011;36133;42.522;27.456;2022-07-23T04:51:33;9.65;;;4.47;;
50249;SDS011;36133;42.522;27.456;2022-07-23T04:53:59;10.60;;;4.15;;
50249;SDS011;36133;42.522;27.456;2022-07-23T04:56:24;8.13;;;3.90;;
50249;SDS011;36133;42.522;27.456;2022-07-23T04:58:50;9.23;;;4.50;;
50249;SDS011;36133;42.522;27.456;2022-07-23T05:01:15;6.15;;;4.20;;
50249;SDS011;36133;42.522;27.456;2022-07-23T05:03:41;10.32;;;4.53;;
50249;SDS011;36133;42.522;27.456;2022-07-23T05:06:06;11.57;;;4.43;;
50249;SDS011;36133;42.522;27.456;2022-07-23T05:08:32;9.50;;;4.10;;
50249;SDS011;36133;42.522;27.456;2022-07-23T05:10:58;8.18;;;4.07;;
50249;SDS011;36133;42.522;27.456;2022-07-23T05:13:23;11.45;;;4.75;;
50249;SDS011;36133;42.522;27.456;2022-07-23T05:15:49;15.32;;;4.50;;
50249;SDS011;36133;42.522;27.456;2022-07-23T05:18:14;13.80;;;4.57;;
50249;SDS011;36133;42.522;27.456;2022-07-23T05:20:40;8.25;;;4.30;;
50249;SDS011;36133;42.522;27.456;2022-07-23T05:23:06;10.13;;;4.15;;
50249;SDS011;36133;42.522;27.456;2022-07-23T05:25:32;13.73;;;4.20;;
50249;SDS011;36133;42.522;27.456;2022-07-23T05:27:57;9.68;;;4.20;;
50249;SDS011;36133;42.522;27.456;2022-07-23T05:30:23;8.68;;;3.97;;
50249;SDS011;36133;42.522;27.456;2022-07-23T05:32:48;8.43;;;3.97;;
50249;SDS011;36133;42.522;27.456;2022-07-23T05:35:14;8.05;;;4.28;;
50249;SDS011;36133;42.522;27.456;2022-07-23T05:37:39;10.40;;;3.90;;
50249;SDS011;36133;42.522;27.456;2022-07-23T05:40:06;12.27;;;4.63;;
50249;SDS011;36133;42.522;27.456;2022-07-23T05:42:37;9.82;;;4.10;;
50249;SDS011;36133;42.522;27.456;2022-07-23T05:45:04;11.30;;;3.70;;
50249;SDS011;36133;42.522;27.456;2022-07-23T05:47:43;9.77;;;3.75;;
50249;SDS011;36133;42.522;27.456;2022-07-23T05:50:11;8.35;;;4.22;;
50249;SDS011;36133;42.522;27.456;2022-07-23T05:52:37;11.38;;;3.75;;
50249;SDS011;36133;42.522;27.456;2022-07-23T05:55:03;10.45;;;3.90;;
50249;SDS011;36133;42.522;27.456;2022-07-23T05:57:30;12.48;;;4.03;;
50249;SDS011;36133;42.522;27.456;2022-07-23T05:59:55;11.50;;;3.78;;
50249;SDS011;36133;42.522;27.456;2022-07-23T06:02:21;10.20;;;3.97;;
50249;SDS011;36133;42.522;27.456;2022-07-23T06:04:50;14.02;;;3.92;;
50249;SDS011;36133;42.522;27.456;2022-07-23T06:07:15;7.85;;;3.50;;
50249;SDS011;36133;42.522;27.456;2022-07-23T06:09:41;10.07;;;3.72;;
50249;SDS011;36133;42.522;27.456;2022-07-23T06:12:07;13.15;;;3.47;;
50249;SDS011;36133;42.522;27.456;2022-07-23T06:14:32;8.20;;;4.18;;
50249;SDS011;36133;42.522;27.456;2022-07-23T06:16:58;6.90;;;3.88;;
50249;SDS011;36133;42.522;27.456;2022-07-23T06:19:24;9.90;;;3.75;;
50249;SDS011;36133;42.522;27.456;2022-07-23T06:21:56;7.68;;;3.38;;
50249;SDS011;36133;42.522;27.456;2022-07-23T06:24:32;11.70;;;3.50;;
50249;SDS011;36133;42.522;27.456;2022-07-23T06:27:00;5.47;;;3.58;;
50249;SDS011;36133;42.522;27.456;2022-07-23T06:32:52;15.57;;;3.80;;
50249;SDS011;36133;42.522;27.456;2022-07-23T06:35:17;5.30;;;3.45;;
50249;SDS011;36133;42.522;27.456;2022-07-23T06:37:43;10.35;;;3.90;;
50249;SDS011;36133;42.522;27.456;2022-07-23T06:40:09;8.02;;;3.85;;
50249;SDS011;36133;42.522;27.456;2022-07-23T06:42:35;10.45;;;3.33;;
50249;SDS011;36133;42.522;27.456;2022-07-23T06:45:04;8.80;;;3.60;;
50249;SDS011;36133;42.522;27.456;2022-07-23T06:47:33;9.45;;;3.40;;
50249;SDS011;36133;42.522;27.456;2022-07-23T06:49:58;7.13;;;3.58;;
50249;SDS011;36133;42.522;27.456;2022-07-23T06:52:24;5.22;;;3.45;;
50249;SDS011;36133;42.522;27.456;2022-07-23T06:54:51;21.50;;;4.35;;
50249;SDS011;36133;42.522;27.456;2022-07-23T06:57:18;13.35;;;3.45;;
50249;SDS011;36133;42.522;27.456;2022-07-23T06:59:44;6.00;;;3.78;;
50249;SDS011;36133;42.522;27.456;2022-07-23T07:02:09;14.13;;;3.78;;
50249;SDS011;36133;42.522;27.456;2022-07-23T07:04:35;11.25;;;4.13;;
50249;SDS011;36133;42.522;27.456;2022-07-23T07:07:01;12.93;;;3.78;;
50249;SDS011;36133;42.522;27.456;2022-07-23T07:09:27;8.13;;;3.67;;
50249;SDS011;36133;42.522;27.456;2022-07-23T07:11:57;10.25;;;4.05;;
50249;SDS011;36133;42.522;27.456;2022-07-23T07:14:23;8.40;;;3.75;;
50249;SDS011;36133;42.522;27.456;2022-07-23T07:16:49;8.68;;;3.88;;
50249;SDS011;36133;42.522;27.456;2022-07-23T07:19:15;7.32;;;4.00;;
50249;SDS011;36133;42.522;27.456;2022-07-23T07:21:41;9.43;;;3.40;;
50249;SDS011;36133;42.522;27.456;2022-07-23T07:24:06;6.00;;;3.20;;
50249;SDS011;36133;42.522;27.456;2022-07-23T07:29:03;13.23;;;4.00;;
50249;SDS011;36133;42.522;27.456;2022-07-23T07:31:31;10.30;;;4.07;;
50249;SDS011;36133;42.522;27.456;2022-07-23T07:33:57;10.00;;;3.42;;
50249;SDS011;36133;42.522;27.456;2022-07-23T07:36:25;11.63;;;4.28;;
50249;SDS011;36133;42.522;27.456;2022-07-23T07:38:51;10.60;;;3.50;;
50249;SDS011;36133;42.522;27.456;2022-07-23T07:41:17;10.27;;;3.28;;
50249;SDS011;36133;42.522;27.456;2022-07-23T07:43:48;19.63;;;4.35;;
50249;SDS011;36133;42.522;27.456;2022-07-23T07:46:13;8.85;;;3.65;;
50249;SDS011;36133;42.522;27.456;2022-07-23T07:48:39;8.73;;;3.15;;
50249;SDS011;36133;42.522;27.456;2022-07-23T07:51:05;6.05;;;3.35;;
50249;SDS011;36133;42.522;27.456;2022-07-23T07:53:30;11.98;;;3.40;;
50249;SDS011;36133;42.522;27.456;2022-07-23T07:55:56;10.35;;;3.78;;
50249;SDS011;36133;42.522;27.456;2022-07-23T07:58:22;7.30;;;3.55;;
50249;SDS011;36133;42.522;27.456;2022-07-23T08:00:48;11.23;;;3.88;;
50249;SDS011;36133;42.522;27.456;2022-07-23T08:03:14;11.77;;;4.57;;
50249;SDS011;36133;42.522;27.456;2022-07-23T08:05:40;13.43;;;4.93;;
50249;SDS011;36133;42.522;27.456;2022-07-23T08:08:08;7.80;;;4.78;;
50249;SDS011;36133;42.522;27.456;2022-07-23T08:10:39;8.75;;;3.67;;
50249;SDS011;36133;42.522;27.456;2022-07-23T08:13:05;9.95;;;3.40;;
50249;SDS011;36133;42.522;27.456;2022-07-23T08:15:31;14.23;;;3.25;;
50249;SDS011;36133;42.522;27.456;2022-07-23T08:17:57;9.32;;;3.60;;
50249;SDS011;36133;42.522;27.456;2022-07-23T08:20:23;8.45;;;2.80;;
50249;SDS011;36133;42.522;27.456;2022-07-23T08:22:52;6.75;;;3.10;;
50249;SDS011;36133;42.522;27.456;2022-07-23T08:25:29;7.85;;;2.80;;
50249;SDS011;36133;42.522;27.456;2022-07-23T08:27:59;9.07;;;3.05;;
50249;SDS011;36133;42.522;27.456;2022-07-23T08:30:26;7.18;;;2.67;;
50249;SDS011;36133;42.522;27.456;2022-07-23T08:33:02;8.93;;;2.97;;
50249;SDS011;36133;42.522;27.456;2022-07-23T08:35:34;10.77;;;2.88;;
50249;SDS011;36133;42.522;27.456;2022-07-23T08:38:02;11.82;;;3.75;;
50249;SDS011;36133;42.522;27.456;2022-07-23T08:40:31;18.90;;;2.90;;
50249;SDS011;36133;42.522;27.456;2022-07-23T08:42:58;14.90;;;2.88;;
50249;SDS011;36133;42.522;27.456;2022-07-23T08:45:25;6.80;;;2.80;;
50249;SDS011;36133;42.522;27.456;2022-07-23T08:47:53;12.95;;;3.03;;
50249;SDS011;36133;42.522;27.456;2022-07-23T08:50:21;14.05;;;2.95;;
50249;SDS011;36133;42.522;27.456;2022-07-23T08:52:48;10.88;;;2.63;;
50249;SDS011;36133;42.522;27.456;2022-07-23T08:55:19;15.68;;;3.05;;
50249;SDS011;36133;42.522;27.456;2022-07-23T08:57:47;7.70;;;3.08;;
50249;SDS011;36133;42.522;27.456;2022-07-23T09:00:14;9.02;;;2.67;;
50249;SDS011;36133;42.522;27.456;2022-07-23T09:02:40;7.22;;;3.10;;
50249;SDS011;36133;42.522;27.456;2022-07-23T09:05:08;7.18;;;2.60;;
50249;SDS011;36133;42.522;27.456;2022-07-23T09:08:02;10.38;;;2.75;;
50249;SDS011;36133;42.522;27.456;2022-07-23T09:10:49;8.13;;;2.60;;
50249;SDS011;36133;42.522;27.456;2022-07-23T09:13:34;12.18;;;2.92;;
50249;SDS011;36133;42.522;27.456;2022-07-23T09:16:19;6.28;;;2.42;;
50249;SDS011;36133;42.522;27.456;2022-07-23T09:18:52;10.20;;;3.05;;
50249;SDS011;36133;42.522;27.456;2022-07-23T09:23:59;10.73;;;2.50;;
50249;SDS011;36133;42.522;27.456;2022-07-23T09:26:35;11.50;;;3.03;;
50249;SDS011;36133;42.522;27.456;2022-07-23T09:29:24;27.60;;;3.58;;
50249;SDS011;36133;42.522;27.456;2022-07-23T09:31:54;8.32;;;2.53;;
50249;SDS011;36133;42.522;27.456;2022-07-23T09:36:52;8.63;;;2.75;;
50249;SDS011;36133;42.522;27.456;2022-07-23T09:39:37;10.27;;;2.83;;
50249;SDS011;36133;42.522;27.456;2022-07-23T09:44:58;7.40;;;3.03;;
50249;SDS011;36133;42.522;27.456;2022-07-23T09:47:25;7.78;;;2.90;;
50249;SDS011;36133;42.522;27.456;2022-07-23T09:52:28;5.53;;;2.60;;
50249;SDS011;36133;42.522;27.456;2022-07-23T09:54:58;10.40;;;2.33;;
50249;SDS011;36133;42.522;27.456;2022-07-23T09:57:31;8.77;;;4.10;;
50249;SDS011;36133;42.522;27.456;2022-07-23T10:00:07;4.43;;;2.70;;
50249;SDS011;36133;42.522;27.456;2022-07-23T10:02:37;9.40;;;3.13;;
50249;SDS011;36133;42.522;27.456;2022-07-23T10:05:09;9.52;;;2.90;;
50249;SDS011;36133;42.522;27.456;2022-07-23T10:07:39;7.07;;;2.72;;
50249;SDS011;36133;42.522;27.456;2022-07-23T10:10:05;11.63;;;2.67;;
50249;SDS011;36133;42.522;27.456;2022-07-23T10:12:31;9.40;;;3.15;;
50249;SDS011;36133;42.522;27.456;2022-07-23T10:15:06;6.53;;;2.60;;
50249;SDS011;36133;42.522;27.456;2022-07-23T10:17:33;13.43;;;2.92;;
50249;SDS011;36133;42.522;27.456;2022-07-23T10:20:00;9.75;;;2.90;;
50249;SDS011;36133;42.522;27.456;2022-07-23T10:22:37;16.83;;;2.90;;
50249;SDS011;36133;42.522;27.456;2022-07-23T10:25:10;6.97;;;3.05;;
50249;SDS011;36133;42.522;27.456;2022-07-23T10:28:03;7.10;;;2.85;;
50249;SDS011;36133;42.522;27.456;2022-07-23T10:39:07;7.00;;;2.63;;
50249;SDS011;36133;42.522;27.456;2022-07-23T10:41:40;9.43;;;3.67;;
50249;SDS011;36133;42.522;27.456;2022-07-23T10:49:32;4.57;;;2.50;;
50249;SDS011;36133;42.522;27.456;2022-07-23T10:52:18;11.60;;;3.42;;
50249;SDS011;36133;42.522;27.456;2022-07-23T10:55:38;6.63;;;2.70;;
50249;SDS011;36133;42.522;27.456;2022-07-23T10:57:48;7.47;;;3.00;;
50249;SDS011;36133;42.522;27.456;2022-07-23T11:00:16;44.60;;;4.73;;
50249;SDS011;36133;42.522;27.456;2022-07-23T11:02:47;7.85;;;2.47;;
50249;SDS011;36133;42.522;27.456;2022-07-23T11:05:19;5.57;;;2.58;;
50249;SDS011;36133;42.522;27.456;2022-07-23T11:10:36;3.85;;;2.72;;
50249;SDS011;36133;42.522;27.456;2022-07-23T11:16:08;8.52;;;3.08;;
50249;SDS011;36133;42.522;27.456;2022-07-23T11:26:43;9.57;;;2.92;;
50249;SDS011;36133;42.522;27.456;2022-07-23T11:31:55;6.25;;;2.78;;
50249;SDS011;36133;42.522;27.456;2022-07-23T11:34:31;13.10;;;2.80;;
50249;SDS011;36133;42.522;27.456;2022-07-23T11:37:05;7.95;;;2.75;;
50249;SDS011;36133;42.522;27.456;2022-07-23T11:39:33;9.55;;;2.95;;
50249;SDS011;36133;42.522;27.456;2022-07-23T11:42:00;13.35;;;3.20;;
50249;SDS011;36133;42.522;27.456;2022-07-23T11:44:27;8.05;;;3.03;;
50249;SDS011;36133;42.522;27.456;2022-07-23T11:47:07;8.65;;;2.70;;
50249;SDS011;36133;42.522;27.456;2022-07-23T11:49:35;10.45;;;2.50;;
50249;SDS011;36133;42.522;27.456;2022-07-23T11:54:30;5.80;;;3.80;;
50249;SDS011;36133;42.522;27.456;2022-07-23T11:56:57;7.32;;;3.08;;
50249;SDS011;36133;42.522;27.456;2022-07-23T11:59:24;7.25;;;3.20;;
50249;SDS011;36133;42.522;27.456;2022-07-23T12:02:01;6.38;;;3.28;;
50249;SDS011;36133;42.522;27.456;2022-07-23T12:07:22;5.65;;;2.63;;
50249;SDS011;36133;42.522;27.456;2022-07-23T12:09:48;6.88;;;2.65;;
50249;SDS011;36133;42.522;27.456;2022-07-23T12:12:14;6.28;;;3.28;;
50249;SDS011;36133;42.522;27.456;2022-07-23T12:14:50;9.43;;;3.10;;
50249;SDS011;36133;42.522;27.456;2022-07-23T12:17:20;18.55;;;3.50;;
50249;SDS011;36133;42.522;27.456;2022-07-23T12:19:47;4.90;;;2.90;;
50249;SDS011;36133;42.522;27.456;2022-07-23T12:22:13;5.70;;;2.47;;
50249;SDS011;36133;42.522;27.456;2022-07-23T12:24:52;5.30;;;3.10;;
50249;SDS011;36133;42.522;27.456;2022-07-23T12:27:25;4.53;;;2.97;;
50249;SDS011;36133;42.522;27.456;2022-07-23T12:29:52;9.07;;;3.50;;
50249;SDS011;36133;42.522;27.456;2022-07-23T12:35:05;7.22;;;3.17;;
50249;SDS011;36133;42.522;27.456;2022-07-23T12:37:38;11.90;;;3.10;;
50249;SDS011;36133;42.522;27.456;2022-07-23T12:42:48;12.38;;;2.78;;
50249;SDS011;36133;42.522;27.456;2022-07-23T12:45:15;7.32;;;3.05;;
50249;SDS011;36133;42.522;27.456;2022-07-23T12:47:55;6.68;;;3.10;;
50249;SDS011;36133;42.522;27.456;2022-07-23T12:50:36;5.13;;;2.78;;
50249;SDS011;36133;42.522;27.456;2022-07-23T12:53:22;11.52;;;3.58;;
50249;SDS011;36133;42.522;27.456;2022-07-23T12:56:18;7.93;;;3.47;;
50249;SDS011;36133;42.522;27.456;2022-07-23T12:58:50;7.57;;;2.90;;
50249;SDS011;36133;42.522;27.456;2022-07-23T13:06:22;4.95;;;3.00;;
50249;SDS011;36133;42.522;27.456;2022-07-23T13:08:48;4.28;;;2.83;;
50249;SDS011;36133;42.522;27.456;2022-07-23T13:11:14;5.15;;;3.00;;
50249;SDS011;36133;42.522;27.456;2022-07-23T13:13:40;6.55;;;2.97;;
50249;SDS011;36133;42.522;27.456;2022-07-23T13:16:12;5.90;;;2.90;;
50249;SDS011;36133;42.522;27.456;2022-07-23T13:18:37;6.93;;;3.28;;
50249;SDS011;36133;42.522;27.456;2022-07-23T13:24:21;11.57;;;3.17;;
50249;SDS011;36133;42.522;27.456;2022-07-23T13:26:47;6.63;;;3.33;;
50249;SDS011;36133;42.522;27.456;2022-07-23T13:29:14;5.35;;;2.80;;
50249;SDS011;36133;42.522;27.456;2022-07-23T13:31:42;7.68;;;3.38;;
50249;SDS011;36133;42.522;27.456;2022-07-23T13:34:08;6.78;;;2.50;;
50249;SDS011;36133;42.522;27.456;2022-07-23T13:36:34;14.15;;;3.10;;
50249;SDS011;36133;42.522;27.456;2022-07-23T13:39:01;7.43;;;3.03;;
50249;SDS011;36133;42.522;27.456;2022-07-23T13:41:27;4.22;;;2.90;;
50249;SDS011;36133;42.522;27.456;2022-07-23T13:43:53;8.13;;;2.65;;
50249;SDS011;36133;42.522;27.456;2022-07-23T13:46:18;12.00;;;2.90;;
50249;SDS011;36133;42.522;27.456;2022-07-23T13:48:44;9.38;;;3.00;;
50249;SDS011;36133;42.522;27.456;2022-07-23T13:51:10;8.13;;;2.90;;
50249;SDS011;36133;42.522;27.456;2022-07-23T13:53:36;8.07;;;2.67;;
50249;SDS011;36133;42.522;27.456;2022-07-23T13:56:01;9.15;;;3.08;;
50249;SDS011;36133;42.522;27.456;2022-07-23T13:58:30;6.80;;;3.47;;
50249;SDS011;36133;42.522;27.456;2022-07-23T14:00:59;8.68;;;3.15;;
50249;SDS011;36133;42.522;27.456;2022-07-23T14:03:25;7.47;;;3.05;;
50249;SDS011;36133;42.522;27.456;2022-07-23T14:05:51;5.75;;;2.95;;
50249;SDS011;36133;42.522;27.456;2022-07-23T14:08:21;9.95;;;3.00;;
50249;SDS011;36133;42.522;27.456;2022-07-23T14:10:46;9.27;;;3.10;;
50249;SDS011;36133;42.522;27.456;2022-07-23T14:13:13;10.10;;;3.72;;
50249;SDS011;36133;42.522;27.456;2022-07-23T14:15:38;15.20;;;3.17;;
50249;SDS011;36133;42.522;27.456;2022-07-23T14:18:07;7.47;;;3.13;;
50249;SDS011;36133;42.522;27.456;2022-07-23T14:20:33;7.93;;;2.83;;
50249;SDS011;36133;42.522;27.456;2022-07-23T14:22:59;14.73;;;3.50;;
50249;SDS011;36133;42.522;27.456;2022-07-23T14:25:27;4.70;;;3.08;;
50249;SDS011;36133;42.522;27.456;2022-07-23T14:27:53;13.10;;;3.20;;
50249;SDS011;36133;42.522;27.456;2022-07-23T14:30:19;8.10;;;3.17;;
50249;SDS011;36133;42.522;27.456;2022-07-23T14:32:45;8.35;;;2.88;;
50249;SDS011;36133;42.522;27.456;2022-07-23T14:35:11;9.32;;;3.55;;
50249;SDS011;36133;42.522;27.456;2022-07-23T14:37:38;11.13;;;3.05;;
50249;SDS011;36133;42.522;27.456;2022-07-23T14:40:04;9.27;;;3.00;;
50249;SDS011;36133;42.522;27.456;2022-07-23T14:42:30;5.88;;;2.90;;
50249;SDS011;36133;42.522;27.456;2022-07-23T14:44:56;5.63;;;3.20;;
50249;SDS011;36133;42.522;27.456;2022-07-23T14:47:22;6.45;;;2.65;;
50249;SDS011;36133;42.522;27.456;2022-07-23T14:49:48;10.75;;;3.03;;
50249;SDS011;36133;42.522;27.456;2022-07-23T14:52:15;7.07;;;2.85;;
50249;SDS011;36133;42.522;27.456;2022-07-23T14:54:40;6.50;;;2.67;;
50249;SDS011;36133;42.522;27.456;2022-07-23T14:57:10;10.27;;;3.08;;
50249;SDS011;36133;42.522;27.456;2022-07-23T14:59:35;5.32;;;2.65;;
50249;SDS011;36133;42.522;27.456;2022-07-23T15:02:12;9.52;;;2.92;;
50249;SDS011;36133;42.522;27.456;2022-07-23T15:04:38;11.07;;;3.00;;
50249;SDS011;36133;42.522;27.456;2022-07-23T15:07:06;8.15;;;3.55;;
50249;SDS011;36133;42.522;27.456;2022-07-23T15:09:35;14.38;;;3.95;;
50249;SDS011;36133;42.522;27.456;2022-07-23T15:12:01;5.30;;;2.90;;
50249;SDS011;36133;42.522;27.456;2022-07-23T15:14:26;6.88;;;2.90;;
50249;SDS011;36133;42.522;27.456;2022-07-23T15:19:26;5.03;;;2.88;;
50249;SDS011;36133;42.522;27.456;2022-07-23T15:21:52;7.85;;;3.40;;
50249;SDS011;36133;42.522;27.456;2022-07-23T15:24:17;8.05;;;3.22;;
50249;SDS011;36133;42.522;27.456;2022-07-23T15:26:43;7.90;;;3.28;;
50249;SDS011;36133;42.522;27.456;2022-07-23T15:29:12;9.60;;;2.92;;
50249;SDS011;36133;42.522;27.456;2022-07-23T15:31:39;9.85;;;3.30;;
50249;SDS011;36133;42.522;27.456;2022-07-23T15:34:04;8.40;;;3.22;;
50249;SDS011;36133;42.522;27.456;2022-07-23T15:36:30;10.68;;;3.30;;
50249;SDS011;36133;42.522;27.456;2022-07-23T15:38:58;8.68;;;3.42;;
50249;SDS011;36133;42.522;27.456;2022-07-23T15:41:24;7.65;;;3.58;;
50249;SDS011;36133;42.522;27.456;2022-07-23T15:43:50;6.18;;;3.08;;